Time;durP1;ratioP1;P1;durP2;ratioP2;P2;SDS_P1;SDS_P2;PMS_P1;PMS_P2;Temp;Humidity;BMP_temperature;BMP_pressure;BME280_temperature;BME280_humidity;BME280_pressure;Samples;Min_cycle;Max_cycle;Signal;HPM_P1;HPM_P2
2023/02/21 02:14:48;;;;;;;1.20;0.90;;;;;;;8.18;67.93;95868.62;109119;1273;25416;-80
2023/02/21 02:17:36;;;;;;;1.50;1.10;;;;;;;8.22;68.05;95883.88;109089;1267;22524;-80
2023/02/21 02:20:42;;;;;;;2.00;1.00;;;;;;;8.17;68.27;95878.66;108706;1270;22521;-80
2023/02/21 02:23:41;;;;;;;2.90;1.70;;;;;;;8.19;68.38;95867.12;108778;1272;23477;-80
2023/02/21 02:26:50;;;;;;;1.70;1.30;;;;;;;8.20;68.48;95862.94;109094;1273;23742;-80
2023/02/21 02:29:45;;;;;;;2.30;1.30;;;;;;;8.19;68.59;95866.38;109044;1273;22531;-81
2023/02/21 02:33:00;;;;;;;1.70;1.20;;;;;;;8.19;68.83;95871.24;109093;1273;23200;-80
2023/02/21 02:35:35;;;;;;;1.80;1.20;;;;;;;8.21;69.09;95868.73;109113;1270;22556;-79
2023/02/21 02:38:16;;;;;;;3.60;1.70;;;;;;;8.21;68.97;95877.50;109070;1273;26624;-80
2023/02/21 02:40:58;;;;;;;1.90;1.00;;;;;;;8.20;69.22;95866.70;109092;1273;24147;-80
2023/02/21 02:43:35;;;;;;;1.90;1.10;;;;;;;8.21;69.50;95870.16;109065;1274;27672;-80
2023/02/21 02:46:13;;;;;;;1.50;1.00;;;;;;;8.22;69.50;95867.40;109091;1272;25220;-80
2023/02/21 02:48:48;;;;;;;1.70;1.20;;;;;;;8.21;69.77;95863.09;109109;1273;25570;-80
2023/02/21 02:51:19;;;;;;;1.50;0.90;;;;;;;8.22;69.95;95864.87;108724;1256;22513;-80
2023/02/21 02:53:50;;;;;;;1.90;1.00;;;;;;;8.24;70.16;95856.08;109032;1273;25892;-80
2023/02/21 02:56:25;;;;;;;2.00;1.10;;;;;;;8.27;70.25;95861.20;109098;1273;22545;-80
2023/02/21 02:59:01;;;;;;;1.80;1.00;;;;;;;8.26;70.34;95864.06;109153;1273;22598;-81
2023/02/21 03:02:06;;;;;;;1.60;1.20;;;;;;;8.24;70.42;95863.27;109062;1266;22515;-81
2023/02/21 03:04:52;;;;;;;1.90;1.10;;;;;;;8.22;70.80;95859.33;109108;1273;24011;-80
2023/02/21 03:07:35;;;;;;;2.20;1.10;;;;;;;8.22;70.96;95865.02;108995;1273;186962;-80
2023/02/21 03:10:17;;;;;;;2.00;1.10;;;;;;;8.22;71.17;95869.46;109124;1273;24671;-80
2023/02/21 03:12:55;;;;;;;1.70;1.10;;;;;;;8.19;71.29;95870.61;109126;1273;22516;-80
2023/02/21 03:15:34;;;;;;;3.20;1.30;;;;;;;8.17;71.55;95867.88;109090;1273;22563;-80
2023/02/21 03:18:14;;;;;;;1.20;0.70;;;;;;;8.18;71.83;95871.98;108745;1272;23748;-81
2023/02/21 03:20:47;;;;;;;2.90;1.20;;;;;;;8.20;71.91;95866.48;108759;1272;22536;-80
2023/02/21 03:23:22;;;;;;;2.10;1.00;;;;;;;8.22;72.08;95855.15;108748;1272;24043;-80
2023/02/21 03:25:55;;;;;;;1.20;0.80;;;;;;;8.25;72.31;95868.46;108647;1271;22525;-80
2023/02/21 03:28:27;;;;;;;1.30;1.00;;;;;;;8.27;72.12;95863.16;108771;1273;22559;-80
2023/02/21 03:30:59;;;;;;;0.60;0.50;;;;;;;8.24;72.24;95864.84;108712;1273;22524;-81
2023/02/21 03:33:33;;;;;;;2.50;1.00;;;;;;;8.20;72.49;95865.27;108739;1274;23799;-81
2023/02/21 03:36:09;;;;;;;1.90;0.80;;;;;;;8.18;72.60;95864.64;108728;1273;25184;-81
2023/02/21 03:38:40;;;;;;;1.60;1.00;;;;;;;8.22;72.66;95851.70;108684;1273;22521;-80
2023/02/21 03:41:12;;;;;;;1.30;1.00;;;;;;;8.25;72.71;95859.55;108747;1272;22526;-80
2023/02/21 03:43:43;;;;;;;1.40;1.00;;;;;;;8.24;72.79;95861.19;108764;1273;22575;-80
2023/02/21 03:46:15;;;;;;;1.20;0.70;;;;;;;8.24;73.12;95862.20;108741;1273;22532;-80
2023/02/21 03:48:46;;;;;;;1.40;0.90;;;;;;;8.25;73.18;95851.73;108742;1270;22522;-80
2023/02/21 03:51:18;;;;;;;1.30;0.80;;;;;;;8.25;73.06;95864.25;108721;1272;22544;-80
2023/02/21 03:53:49;;;;;;;0.60;0.60;;;;;;;8.23;73.06;95868.43;108729;1273;25233;-80
2023/02/21 03:56:20;;;;;;;2.00;1.00;;;;;;;8.23;73.18;95858.46;108721;1273;22717;-80
2023/02/21 03:58:51;;;;;;;2.00;0.90;;;;;;;8.23;73.40;95865.64;108734;1273;22525;-80
2023/02/21 04:01:22;;;;;;;2.50;1.20;;;;;;;8.28;73.35;95855.82;108732;1273;25288;-80
2023/02/21 04:03:53;;;;;;;4.10;0.90;;;;;;;8.30;73.34;95855.75;108764;1273;22568;-80
2023/02/21 04:06:24;;;;;;;0.80;0.70;;;;;;;8.28;73.32;95860.45;108708;1273;22906;-80
2023/02/21 04:08:55;;;;;;;1.00;0.70;;;;;;;8.27;73.31;95869.55;108770;1273;22543;-80
2023/02/21 04:11:29;;;;;;;2.00;1.10;;;;;;;8.24;73.68;95867.43;109071;1270;24360;-79
2023/02/21 04:14:00;;;;;;;1.10;0.60;;;;;;;8.24;73.78;95865.73;109110;1273;22547;-80
2023/02/21 04:16:31;;;;;;;1.10;0.60;;;;;;;8.25;73.85;95860.17;109111;1269;22534;-80
2023/02/21 04:19:02;;;;;;;1.50;0.70;;;;;;;8.26;73.98;95869.20;109133;1273;22573;-81
2023/02/21 04:21:34;;;;;;;1.50;1.40;;;;;;;8.24;74.16;95850.37;109067;1273;27043;-80
2023/02/21 04:24:05;;;;;;;1.50;0.80;;;;;;;8.25;74.34;95854.73;109105;1273;22524;-80
2023/02/21 04:26:37;;;;;;;3.10;0.80;;;;;;;8.25;74.40;95856.64;109051;1273;22534;-81
2023/02/21 04:29:08;;;;;;;1.50;0.70;;;;;;;8.24;74.58;95855.59;109072;1267;22533;-80
2023/02/21 04:31:39;;;;;;;2.00;1.10;;;;;;;8.24;74.61;95858.20;109094;1273;22551;-80
2023/02/21 04:34:10;;;;;;;1.20;0.60;;;;;;;8.23;74.80;95857.77;109142;1273;22540;-80
2023/02/21 04:36:41;;;;;;;1.50;1.00;;;;;;;8.21;74.80;95858.70;109078;1273;22536;-80
2023/02/21 04:39:13;;;;;;;1.60;0.70;;;;;;;8.19;75.06;95858.10;109098;1251;22577;-80
2023/02/21 04:41:44;;;;;;;1.70;0.80;;;;;;;8.20;75.50;95861.95;109070;1270;22521;-80
2023/02/21 04:44:17;;;;;;;1.40;1.00;;;;;;;8.18;75.58;95864.71;109053;1273;22515;-81
2023/02/21 04:46:48;;;;;;;2.10;0.90;;;;;;;8.19;75.77;95853.72;109122;1273;24793;-79
2023/02/21 04:49:19;;;;;;;1.50;1.00;;;;;;;8.20;75.85;95861.83;108739;1270;23797;-81
2023/02/21 04:51:50;;;;;;;0.90;0.70;;;;;;;8.21;75.93;95857.96;108721;1273;23303;-79
2023/02/21 04:54:21;;;;;;;2.00;1.00;;;;;;;8.20;76.11;95869.34;108755;1273;22528;-80
2023/02/21 04:56:52;;;;;;;0.80;0.60;;;;;;;8.16;76.06;95865.34;108760;1273;25488;-81
2023/02/21 04:59:23;;;;;;;1.40;0.80;;;;;;;8.16;76.31;95861.81;109112;1273;22533;-80
2023/02/21 05:01:54;;;;;;;2.60;1.10;;;;;;;8.16;76.39;95859.91;109073;1270;28473;-80
2023/02/21 05:04:25;;;;;;;0.60;0.60;;;;;;;8.18;76.53;95838.36;108782;1252;22530;-80
2023/02/21 05:06:58;;;;;;;1.60;0.60;;;;;;;8.19;76.70;95867.48;108704;1269;23872;-80
2023/02/21 05:09:29;;;;;;;2.70;0.70;;;;;;;8.18;76.86;95879.11;108741;1273;22519;-79
2023/02/21 05:12:00;;;;;;;1.70;0.80;;;;;;;8.14;76.99;95878.92;108727;1273;23646;-79
2023/02/21 05:14:33;;;;;;;1.70;0.50;;;;;;;8.10;77.24;95870.48;108746;1272;24221;-80
2023/02/21 05:17:04;;;;;;;2.10;0.90;;;;;;;8.08;77.62;95875.99;108746;1273;23799;-81
2023/02/21 05:19:35;;;;;;;2.00;0.90;;;;;;;8.09;78.03;95866.44;109081;1273;22523;-80
2023/02/21 05:22:07;;;;;;;0.90;0.70;;;;;;;8.09;78.44;95867.02;108756;1273;22525;-80
2023/02/21 05:24:42;;;;;;;2.20;0.80;;;;;;;8.07;78.38;95881.19;108747;1273;22536;-81
2023/02/21 05:27:14;;;;;;;3.50;1.40;;;;;;;8.03;78.98;95887.66;108746;1273;22537;-79
2023/02/21 05:29:48;;;;;;;1.80;0.90;;;;;;;7.99;79.41;95877.34;108830;1273;22510;-81
2023/02/21 05:32:23;;;;;;;1.40;0.80;;;;;;;7.97;80.00;95889.02;108716;1273;22749;-79
2023/02/21 05:34:54;;;;;;;2.40;0.60;;;;;;;7.92;80.45;95902.77;108760;1271;25427;-80
2023/02/21 05:37:25;;;;;;;2.20;0.60;;;;;;;7.85;80.99;95898.06;108767;1267;24318;-80
2023/02/21 05:39:56;;;;;;;1.60;0.80;;;;;;;7.79;81.78;95893.76;108767;1273;22566;-79
2023/02/21 05:42:28;;;;;;;2.10;0.60;;;;;;;7.73;82.06;95900.02;108749;1270;25240;-80
2023/02/21 05:44:59;;;;;;;1.10;0.80;;;;;;;7.66;82.36;95899.60;108782;1273;22518;-79
2023/02/21 05:47:31;;;;;;;2.50;0.80;;;;;;;7.61;82.60;95885.55;108748;1273;23847;-79
2023/02/21 05:50:02;;;;;;;1.90;0.70;;;;;;;7.62;82.92;95886.77;108718;1267;24243;-80
2023/02/21 05:52:33;;;;;;;0.70;0.50;;;;;;;7.62;83.16;95889.46;108687;1274;24200;-80
2023/02/21 05:55:05;;;;;;;1.30;0.80;;;;;;;7.60;83.58;95888.67;108764;1275;22520;-79
2023/02/21 05:57:41;;;;;;;1.30;0.60;;;;;;;7.57;84.15;95892.34;108744;1274;25271;-80
2023/02/21 06:00:18;;;;;;;0.70;0.70;;;;;;;7.55;84.47;95880.59;108706;1273;23832;-79
2023/02/21 06:02:49;;;;;;;2.00;0.70;;;;;;;7.54;84.60;95884.20;108776;1252;22548;-79
2023/02/21 06:05:22;;;;;;;2.40;0.90;;;;;;;7.55;84.65;95887.29;108698;1275;22522;-80
2023/02/21 06:07:53;;;;;;;0.80;0.70;;;;;;;7.56;84.63;95886.13;108716;1275;23026;-80
2023/02/21 06:10:26;;;;;;;1.30;0.90;;;;;;;7.53;84.81;95897.22;108732;1273;24288;-79
2023/02/21 06:12:58;;;;;;;2.20;1.10;;;;;;;7.49;84.74;95890.98;108729;1274;22538;-80
2023/02/21 06:15:29;;;;;;;3.10;1.50;;;;;;;7.45;85.13;95900.23;108739;1274;25271;-80
2023/02/21 06:18:00;;;;;;;3.40;1.30;;;;;;;7.42;85.41;95904.59;108663;1273;23279;-80
2023/02/21 06:20:31;;;;;;;1.80;1.40;;;;;;;7.39;86.21;95897.95;108677;1274;56140;-79
2023/02/21 06:23:02;;;;;;;3.00;1.50;;;;;;;7.37;86.77;95909.11;108740;1273;25448;-79
2023/02/21 06:25:33;;;;;;;2.50;1.40;;;;;;;7.31;87.29;95919.85;108732;1273;22655;-79
2023/02/21 06:28:05;;;;;;;1.70;1.10;;;;;;;7.27;87.77;95921.98;108729;1274;22547;-80
2023/02/21 06:30:36;;;;;;;2.80;1.30;;;;;;;7.26;88.37;95929.85;108723;1271;24187;-80
2023/02/21 06:33:07;;;;;;;2.60;1.20;;;;;;;7.24;88.89;95925.59;108690;1268;23914;-79
2023/02/21 06:35:38;;;;;;;1.30;0.90;;;;;;;7.22;89.25;95932.15;108740;1266;22524;-79
2023/02/21 06:38:09;;;;;;;2.30;1.00;;;;;;;7.19;90.03;95933.65;108728;1267;23866;-79
2023/02/21 06:40:43;;;;;;;2.50;1.40;;;;;;;7.18;90.48;95932.59;108744;1270;25362;-79
2023/02/21 06:43:15;;;;;;;4.20;1.70;;;;;;;7.19;90.69;95914.03;108711;1270;23795;-80
2023/02/21 06:45:46;;;;;;;2.00;1.20;;;;;;;7.24;91.18;95925.70;108754;1273;23790;-79
2023/02/21 06:48:18;;;;;;;2.50;1.00;;;;;;;7.22;91.27;95950.39;108701;1274;24180;-79
2023/02/21 06:50:49;;;;;;;1.60;1.20;;;;;;;7.15;91.90;95944.34;108688;1274;28869;-79
2023/02/21 06:53:20;;;;;;;3.00;1.30;;;;;;;7.08;92.67;95953.84;108714;1273;22525;-78
2023/02/21 06:55:51;;;;;;;3.10;1.10;;;;;;;7.02;93.43;95962.45;108724;1273;24434;-79
2023/02/21 06:58:22;;;;;;;3.30;1.80;;;;;;;6.99;94.23;95958.20;108682;1274;22576;-79
2023/02/21 07:00:53;;;;;;;3.20;1.40;;;;;;;6.94;94.47;95960.91;108720;1273;22630;-79
2023/02/21 07:03:24;;;;;;;2.10;1.10;;;;;;;6.93;94.91;95962.34;108730;1260;22510;-79
2023/02/21 07:05:55;;;;;;;2.60;1.50;;;;;;;6.95;94.96;95963.64;108743;1273;23684;-79
2023/02/21 07:08:26;;;;;;;2.50;1.20;;;;;;;6.96;95.23;95956.11;108688;1273;22536;-79
2023/02/21 07:10:58;;;;;;;2.90;1.90;;;;;;;6.97;95.43;95971.22;108719;1274;23419;-79
2023/02/21 07:13:29;;;;;;;1.20;0.70;;;;;;;6.98;95.61;95962.73;108722;1267;22527;-79
2023/02/21 07:16:00;;;;;;;3.30;1.50;;;;;;;6.98;95.91;95960.98;108755;1270;22598;-79
2023/02/21 07:18:31;;;;;;;3.20;1.60;;;;;;;6.95;96.10;95958.17;108719;1268;26650;-79
2023/02/21 07:21:02;;;;;;;5.30;2.30;;;;;;;6.95;96.28;95955.75;108620;1273;70109;-79
2023/02/21 07:23:33;;;;;;;4.50;1.60;;;;;;;6.92;96.49;95958.35;108720;1263;22582;-79
2023/02/21 07:26:04;;;;;;;2.00;1.00;;;;;;;6.92;96.62;95962.88;108765;1273;24214;-79
2023/02/21 07:28:35;;;;;;;2.00;1.30;;;;;;;6.94;97.04;95976.20;108728;1273;23863;-79
2023/02/21 07:31:09;;;;;;;6.20;2.30;;;;;;;6.97;97.15;95968.02;108720;1273;22523;-79
2023/02/21 07:33:40;;;;;;;8.70;2.70;;;;;;;7.05;97.14;95966.55;108726;1267;23063;-79
2023/02/21 07:36:11;;;;;;;3.50;1.60;;;;;;;7.12;96.90;95974.21;108713;1273;24165;-79
2023/02/21 07:38:43;;;;;;;1.70;1.20;;;;;;;7.19;96.56;95974.86;108695;1274;22531;-79
2023/02/21 07:41:16;;;;;;;2.50;1.00;;;;;;;7.31;96.12;95975.48;108739;1274;22548;-79
2023/02/21 07:43:47;;;;;;;2.10;1.20;;;;;;;7.44;95.55;95982.52;108729;1275;22545;-78
2023/02/21 07:46:18;;;;;;;1.40;0.70;;;;;;;7.50;94.99;95966.04;108749;1270;22527;-81
2023/02/21 07:48:49;;;;;;;1.30;0.60;;;;;;;7.65;93.85;95965.77;108733;1273;25239;-80
2023/02/21 07:51:21;;;;;;;1.00;0.80;;;;;;;7.86;93.43;95959.66;108737;1267;22513;-80
2023/02/21 07:53:52;;;;;;;0.20;0.20;;;;;;;7.97;91.83;95961.40;108744;1273;22573;-80
2023/02/21 07:56:23;;;;;;;0.90;0.70;;;;;;;7.94;90.96;95965.71;108722;1267;22521;-79
2023/02/21 07:58:54;;;;;;;1.30;0.60;;;;;;;7.96;91.08;95975.82;108755;1273;26669;-79
2023/02/21 08:01:27;;;;;;;0.60;0.40;;;;;;;7.93;90.65;95983.73;108723;1273;22849;-80
2023/02/21 08:03:58;;;;;;;0.70;0.60;;;;;;;7.94;90.01;95972.89;108748;1273;23811;-81
2023/02/21 08:06:29;;;;;;;0.70;0.60;;;;;;;8.07;89.13;95977.42;108679;1270;22531;-81
2023/02/21 08:08:59;;;;;;;1.80;0.70;;;;;;;8.07;88.06;95973.21;108741;1267;22559;-81
2023/02/21 08:11:31;;;;;;;0.80;0.70;;;;;;;8.09;86.37;95966.53;108733;1267;22873;-81
2023/02/21 08:14:02;;;;;;;1.90;1.10;;;;;;;8.28;86.01;95970.02;108710;1267;22527;-79
2023/02/21 08:16:33;;;;;;;1.70;0.80;;;;;;;8.47;86.10;95979.63;108821;1267;25504;-80
2023/02/21 08:19:04;;;;;;;1.90;0.60;;;;;;;8.43;85.70;95989.23;108736;1267;22585;-81
2023/02/21 08:21:35;;;;;;;1.50;0.40;;;;;;;8.33;84.90;95983.86;108699;1273;23025;-80
2023/02/21 08:24:07;;;;;;;0.80;0.50;;;;;;;8.26;84.94;95987.86;108721;1274;22553;-79
2023/02/21 08:26:39;;;;;;;0.60;0.50;;;;;;;8.21;85.14;95966.69;108801;1273;25419;-80
2023/02/21 08:29:10;;;;;;;0.80;0.70;;;;;;;8.21;84.46;95969.81;108788;1267;22531;-80
2023/02/21 08:31:43;;;;;;;0.30;0.30;;;;;;;8.23;83.55;95959.91;108749;1274;22529;-80
2023/02/21 08:34:15;;;;;;;1.30;0.60;;;;;;;8.27;83.98;95978.60;108737;1267;22517;-80
2023/02/21 08:36:46;;;;;;;0.60;0.40;;;;;;;8.29;84.05;95999.88;108765;1273;22517;-79
2023/02/21 08:39:17;;;;;;;0.90;0.70;;;;;;;8.28;83.84;96001.45;108741;1273;26555;-81
2023/02/21 08:41:49;;;;;;;1.20;0.60;;;;;;;8.33;83.90;96010.23;108737;1269;22637;-80
2023/02/21 08:44:21;;;;;;;0.40;0.40;;;;;;;8.46;82.22;95945.92;108748;1266;25246;-81
2023/02/21 08:46:52;;;;;;;2.40;0.70;;;;;;;8.63;81.36;96005.83;108749;1273;24305;-81
2023/02/21 08:49:23;;;;;;;0.90;0.60;;;;;;;8.63;81.27;96011.59;108729;1273;22533;-79
2023/02/21 08:51:55;;;;;;;1.50;1.40;;;;;;;8.95;80.26;95992.58;108735;1274;36936;-79
2023/02/21 08:54:26;;;;;;;3.70;2.30;;;;;;;9.16;78.82;96001.73;108766;1273;24372;-81
2023/02/21 08:56:57;;;;;;;3.50;2.50;;;;;;;8.99;78.39;96017.80;108776;1273;22521;-79
2023/02/21 08:59:32;;;;;;;3.70;2.50;;;;;;;8.81;78.20;96034.70;108733;1269;24676;-80
2023/02/21 09:02:03;;;;;;;0.70;0.70;;;;;;;8.68;78.84;96035.52;108735;1273;25982;-80
2023/02/21 09:04:37;;;;;;;2.90;0.80;;;;;;;8.57;78.70;96017.55;109101;1273;23930;-80
2023/02/21 09:07:08;;;;;;;1.70;0.80;;;;;;;8.52;78.28;96038.48;108710;1250;22527;-80
2023/02/21 09:09:40;;;;;;;1.70;0.80;;;;;;;8.52;79.23;96035.20;108744;1273;25973;-80
2023/02/21 09:12:11;;;;;;;1.00;0.80;;;;;;;8.53;79.17;96031.02;108721;1273;22559;-81
2023/02/21 09:14:44;;;;;;;0.80;0.50;;;;;;;8.45;79.62;96024.02;109075;1267;22559;-80
2023/02/21 09:17:15;;;;;;;1.00;0.50;;;;;;;8.37;80.06;96033.34;109115;1273;22603;-80
2023/02/21 09:19:46;;;;;;;0.40;0.40;;;;;;;8.36;79.95;96027.44;108739;1273;23827;-80
2023/02/21 09:22:17;;;;;;;0.40;0.40;;;;;;;8.38;79.72;96032.52;109050;1267;22523;-81
2023/02/21 09:24:48;;;;;;;2.90;1.70;;;;;;;8.38;79.65;96044.79;109083;1269;22531;-80
2023/02/21 09:27:19;;;;;;;7.40;3.90;;;;;;;8.39;79.74;96045.98;108750;1270;23876;-80
2023/02/21 09:29:50;;;;;;;1.40;0.90;;;;;;;8.39;79.89;96036.27;108764;1273;22547;-79
2023/02/21 09:32:21;;;;;;;1.50;0.90;;;;;;;8.42;80.35;96036.23;108705;1266;25574;-81
2023/02/21 09:34:53;;;;;;;2.90;2.10;;;;;;;8.47;80.74;96039.23;108721;1270;24216;-80
2023/02/21 09:37:24;;;;;;;1.10;0.80;;;;;;;8.40;81.48;96047.41;108762;1266;24440;-81
2023/02/21 09:39:56;;;;;;;2.40;1.10;;;;;;;8.36;81.60;96057.48;108723;1273;24516;-80
2023/02/21 09:42:31;;;;;;;1.50;0.90;;;;;;;8.35;81.57;96054.80;108714;1273;24244;-80
2023/02/21 09:45:02;;;;;;;3.80;1.00;;;;;;;8.29;82.44;96041.65;108811;1273;22542;-80
2023/02/21 09:47:37;;;;;;;1.30;1.00;;;;;;;8.24;82.78;96041.45;108731;1273;23056;-80
2023/02/21 09:50:14;;;;;;;2.20;0.70;;;;;;;8.21;83.76;96064.34;109075;1251;22534;-80
2023/02/21 09:52:47;;;;;;;2.30;0.70;;;;;;;8.25;83.49;96049.88;108745;1273;25419;-80
2023/02/21 09:55:31;;;;;;;1.20;0.90;;;;;;;8.33;82.66;96057.42;108782;1267;22521;-80
2023/02/21 09:58:03;;;;;;;1.40;1.10;;;;;;;8.38;82.15;96061.21;108753;1273;25362;-80
2023/02/21 10:00:38;;;;;;;1.70;1.00;;;;;;;8.30;82.89;96071.50;108760;1273;22517;-80
2023/02/21 10:03:40;;;;;;;1.40;0.80;;;;;;;8.32;83.30;96064.36;108725;1266;22529;-81
2023/02/21 10:06:23;;;;;;;2.10;1.30;;;;;;;8.29;82.59;96067.23;108753;1273;22988;-81
2023/02/21 10:08:59;;;;;;;1.60;1.20;;;;;;;8.28;82.75;96060.83;108767;1270;22646;-80
2023/02/21 10:11:41;;;;;;;1.50;0.90;;;;;;;8.28;82.87;96071.76;108718;1273;22642;-80
2023/02/21 10:14:27;;;;;;;1.10;1.00;;;;;;;8.28;83.27;96065.42;108782;1273;22613;-80
2023/02/21 10:17:11;;;;;;;2.00;1.30;;;;;;;8.25;82.90;96080.08;108752;1266;22520;-80
2023/02/21 10:19:47;;;;;;;1.60;1.20;;;;;;;8.24;82.87;96083.58;108769;1273;22557;-80
2023/02/21 10:22:22;;;;;;;2.30;1.30;;;;;;;8.22;82.48;96063.27;108764;1273;22535;-81
2023/02/21 10:24:54;;;;;;;1.10;0.90;;;;;;;8.30;82.42;96078.69;108783;1271;22535;-81
2023/02/21 10:27:30;;;;;;;3.10;1.60;;;;;;;8.47;81.90;96066.68;108727;1273;24221;-82
2023/02/21 10:30:07;;;;;;;2.00;1.00;;;;;;;8.70;81.47;96089.85;108724;1273;37052;-80
2023/02/21 10:32:39;;;;;;;3.90;1.30;;;;;;;8.89;79.70;96084.15;108750;1273;22530;-80
2023/02/21 10:35:10;;;;;;;1.50;1.30;;;;;;;9.11;78.10;96064.83;108712;1267;22517;-81
2023/02/21 10:37:45;;;;;;;2.00;1.30;;;;;;;9.05;75.95;96070.52;108754;1273;25552;-80
2023/02/21 10:40:27;;;;;;;3.40;0.90;;;;;;;8.91;77.15;96095.19;108696;1271;24292;-80
2023/02/21 10:43:06;;;;;;;3.70;1.20;;;;;;;8.63;78.21;96091.48;109035;1270;25430;-81
2023/02/21 10:45:41;;;;;;;3.40;1.90;;;;;;;8.40;79.94;96103.20;109098;1273;22552;-81
2023/02/21 10:48:14;;;;;;;2.40;2.20;;;;;;;8.35;81.40;96100.17;109089;1267;22684;-81
2023/02/21 10:50:52;;;;;;;1.80;1.20;;;;;;;8.38;82.26;96108.92;109086;1273;22984;-82
2023/02/21 10:53:29;;;;;;;3.90;1.90;;;;;;;8.42;82.92;96105.40;108768;1274;22655;-81
2023/02/21 10:56:28;;;;;;;3.80;2.20;;;;;;;8.74;83.19;96101.85;109188;1273;23927;-81
2023/02/21 10:59:04;;;;;;;2.30;1.60;;;;;;;9.20;83.48;96098.46;109055;1268;22535;-81
2023/02/21 11:01:42;;;;;;;2.50;1.50;;;;;;;9.47;81.17;96080.13;108717;1273;22519;-82
2023/02/21 11:04:33;;;;;;;2.70;1.50;;;;;;;9.38;80.27;96085.46;108746;1273;22555;-80
2023/02/21 11:07:08;;;;;;;2.10;1.50;;;;;;;9.24;80.21;96093.30;108719;1267;22532;-81
2023/02/21 11:09:41;;;;;;;2.60;1.30;;;;;;;9.03;80.44;96090.26;108733;1273;23541;-80
2023/02/21 11:12:24;;;;;;;3.50;2.10;;;;;;;8.97;81.16;96083.34;108717;1270;25129;-80
2023/02/21 11:15:20;;;;;;;2.30;1.80;;;;;;;9.07;81.51;96082.44;108806;1268;24039;-80
2023/02/21 11:18:05;;;;;;;2.50;1.50;;;;;;;8.98;80.81;96069.25;108519;1263;23189;-81
2023/02/21 11:20:36;;;;;;;2.70;2.00;;;;;;;8.82;81.24;96080.58;108760;1270;26552;-82
2023/02/21 11:23:20;;;;;;;2.50;2.00;;;;;;;8.80;80.40;96040.52;108768;1273;23858;-82
2023/02/21 11:25:56;;;;;;;2.30;1.40;;;;;;;9.04;79.95;96076.71;108784;1273;22527;-81
2023/02/21 11:28:28;;;;;;;2.40;1.80;;;;;;;9.27;79.79;96072.48;108763;1273;23746;-82
2023/02/21 11:31:16;;;;;;;3.60;1.50;;;;;;;9.24;78.49;96059.55;109061;1273;22553;-81
2023/02/21 11:33:56;;;;;;;1.50;1.20;;;;;;;9.15;79.31;96074.63;109080;1273;22827;-81
2023/02/21 11:36:32;;;;;;;2.30;1.70;;;;;;;9.09;78.87;96076.16;108819;1273;23862;-81
2023/02/21 11:39:15;;;;;;;1.80;1.10;;;;;;;9.00;78.49;96073.26;108744;1270;22531;-80
2023/02/21 11:41:49;;;;;;;2.10;1.50;;;;;;;8.94;78.36;96086.75;108705;1268;24215;-81
2023/02/21 11:44:34;;;;;;;2.40;1.30;;;;;;;8.93;78.16;96079.30;108716;1273;22944;-80
2023/02/21 11:47:14;;;;;;;2.40;1.10;;;;;;;9.00;78.08;96080.45;108734;1273;22527;-80
2023/02/21 11:49:54;;;;;;;1.70;1.20;;;;;;;9.08;77.71;96081.05;108799;1273;22545;-80
2023/02/21 11:52:31;;;;;;;1.30;1.10;;;;;;;9.15;77.99;96096.90;108758;1273;23042;-81
2023/02/21 11:55:03;;;;;;;2.60;1.10;;;;;;;9.13;77.09;96072.39;108759;1250;22533;-80
2023/02/21 11:57:44;;;;;;;1.70;1.50;;;;;;;8.97;78.13;96079.80;108739;1270;22536;-80
2023/02/21 12:00:24;;;;;;;2.10;1.30;;;;;;;8.87;79.67;96089.67;108738;1266;22543;-80
2023/02/21 12:03:22;;;;;;;2.10;1.40;;;;;;;8.86;79.97;96083.17;108745;1273;22533;-80
2023/02/21 12:06:02;;;;;;;1.60;1.10;;;;;;;8.84;80.39;96086.15;109081;1267;22553;-81
2023/02/21 12:08:47;;;;;;;2.80;1.70;;;;;;;8.76;80.26;96085.27;108730;1273;22516;-80
2023/02/21 12:11:38;;;;;;;2.30;1.20;;;;;;;8.65;80.34;96071.91;108749;1273;22629;-80
2023/02/21 12:14:44;;;;;;;3.00;1.50;;;;;;;8.54;80.83;96078.66;108748;1270;22580;-81
2023/02/21 12:17:32;;;;;;;3.00;1.70;;;;;;;8.47;82.05;96091.42;108683;1273;22533;-80
2023/02/21 12:20:18;;;;;;;1.80;1.40;;;;;;;8.53;82.83;96104.88;108689;1273;23188;-80
2023/02/21 12:23:07;;;;;;;1.90;1.40;;;;;;;8.67;81.40;96086.89;109119;1273;22566;-80
2023/02/21 12:25:56;;;;;;;2.20;1.50;;;;;;;8.75;80.70;96082.51;109082;1273;22611;-80
2023/02/21 12:28:37;;;;;;;1.50;1.20;;;;;;;8.76;81.01;96083.45;108731;1273;22523;-80
2023/02/21 12:31:24;;;;;;;3.90;2.50;;;;;;;8.74;81.68;96078.55;108762;1273;25519;-80
2023/02/21 12:34:09;;;;;;;3.80;2.60;;;;;;;8.68;82.44;96083.45;108735;1267;24187;-79
2023/02/21 12:36:55;;;;;;;2.80;1.70;;;;;;;8.60;83.40;96083.53;108750;1267;23073;-79
2023/02/21 12:39:41;;;;;;;5.20;2.40;;;;;;;8.45;84.58;96086.30;108771;1273;22548;-79
2023/02/21 12:42:28;;;;;;;1.60;1.30;;;;;;;8.27;85.79;96084.92;108717;1273;22538;-81
2023/02/21 12:45:15;;;;;;;4.60;2.00;;;;;;;8.15;87.04;96078.89;109126;1273;22733;-81
2023/02/21 12:47:55;;;;;;;3.10;1.90;;;;;;;8.14;86.96;96056.88;109069;1251;22544;-81
2023/02/21 12:50:31;;;;;;;2.70;1.30;;;;;;;8.16;87.24;96070.92;109064;1273;23220;-81
2023/02/21 12:53:08;;;;;;;3.20;1.90;;;;;;;8.24;87.20;96076.45;109095;1269;25458;-81
2023/02/21 12:55:44;;;;;;;1.40;1.10;;;;;;;8.28;86.80;96068.33;109082;1273;22527;-81
2023/02/21 12:58:22;;;;;;;2.30;1.30;;;;;;;8.43;85.98;96083.62;108778;1271;22511;-82
2023/02/21 13:00:57;;;;;;;3.20;1.70;;;;;;;8.57;83.87;96048.00;108817;1273;48981;-81
2023/02/21 13:03:45;;;;;;;2.90;1.60;;;;;;;8.66;82.06;96073.33;108763;1273;25284;-82
2023/02/21 13:06:23;;;;;;;1.80;0.80;;;;;;;8.69;81.45;96090.68;108698;1273;24222;-81
2023/02/21 13:09:11;;;;;;;2.30;1.20;;;;;;;8.67;81.66;96071.58;108743;1270;22583;-81
2023/02/21 13:11:50;;;;;;;2.10;1.10;;;;;;;8.79;82.48;96084.62;108720;1266;25408;-81
2023/02/21 13:14:26;;;;;;;1.80;1.30;;;;;;;9.21;81.81;96076.89;108728;1273;22518;-81
2023/02/21 13:16:57;;;;;;;1.30;1.20;;;;;;;9.27;78.57;96073.17;108783;1273;22646;-82
2023/02/21 13:19:37;;;;;;;2.40;1.50;;;;;;;9.16;77.06;96088.59;108763;1270;24105;-80
2023/02/21 13:22:29;;;;;;;2.40;1.60;;;;;;;9.12;76.83;96099.77;108729;1266;22558;-81
2023/02/21 13:25:06;;;;;;;3.00;1.20;;;;;;;9.18;75.96;96089.15;108752;1268;24212;-80
2023/02/21 13:28:04;;;;;;;2.40;1.50;;;;;;;9.33;75.98;96098.27;108755;1251;22536;-79
2023/02/21 13:30:45;;;;;;;2.20;1.50;;;;;;;9.45;75.72;96094.02;108786;1273;51686;-80
2023/02/21 13:33:28;;;;;;;2.90;1.90;;;;;;;9.35;74.49;96122.23;108709;1270;25434;-80
2023/02/21 13:36:01;;;;;;;1.90;1.00;;;;;;;9.26;73.79;96108.04;108757;1273;24224;-81
2023/02/21 13:38:33;;;;;;;1.30;1.00;;;;;;;9.20;72.72;96115.83;108721;1273;22549;-80
2023/02/21 13:41:15;;;;;;;4.00;1.30;;;;;;;9.18;72.60;96105.13;108743;1273;24223;-80
2023/02/21 13:43:51;;;;;;;1.80;1.30;;;;;;;9.11;72.75;96104.75;108763;1274;22557;-80
2023/02/21 13:47:05;;;;;;;2.10;1.40;;;;;;;9.04;73.10;96111.71;108729;1269;22516;-79
2023/02/21 13:49:47;;;;;;;4.30;1.80;;;;;;;9.02;74.46;96122.16;108701;1273;22608;-79
2023/02/21 13:52:36;;;;;;;2.70;1.20;;;;;;;9.02;75.11;96117.89;108796;1266;22535;-79
2023/02/21 13:55:22;;;;;;;;;;;;;;;9.02;75.48;96123.64;108760;1273;26102;-79
2023/02/21 13:58:32;;;;;;;2.20;1.40;;;;;;;8.95;75.26;96114.81;108737;1270;25149;-80
2023/02/21 14:01:34;;;;;;;3.90;1.80;;;;;;;8.86;75.00;96121.52;108750;1273;22529;-79
2023/02/21 14:04:42;;;;;;;1.80;1.20;;;;;;;8.80;75.43;96121.56;108786;1273;25378;-80
2023/02/21 14:07:14;;;;;;;2.10;1.50;;;;;;;8.72;75.99;96124.27;108722;1269;25439;-80
2023/02/21 14:09:48;;;;;;;2.00;1.30;;;;;;;8.63;76.82;96128.42;108746;1273;24237;-79
2023/02/21 14:12:25;;;;;;;2.10;1.10;;;;;;;8.50;77.96;96142.16;108744;1267;23116;-80
2023/02/21 14:15:08;;;;;;;1.40;0.70;;;;;;;8.41;78.24;96131.18;108723;1265;24225;-80
2023/02/21 14:17:39;;;;;;;0.70;0.70;;;;;;;8.42;79.05;96146.48;108770;1273;23427;-80
2023/02/21 14:20:20;;;;;;;2.60;1.10;;;;;;;8.40;79.27;96133.88;108704;1273;38541;-81
2023/02/21 14:22:58;;;;;;;1.30;0.60;;;;;;;8.31;78.74;96159.11;108763;1273;24215;-81
2023/02/21 14:25:33;;;;;;;1.00;0.60;;;;;;;8.17;77.17;96133.38;108715;1273;22554;-81
2023/02/21 14:28:40;;;;;;;3.10;0.70;;;;;;;8.08;75.69;96141.20;108713;1273;22530;-80
2023/02/21 14:31:13;;;;;;;1.00;0.80;;;;;;;8.29;75.74;96141.77;108673;1273;23374;-80